sensor_id;sensor_type;location;lat;lon;timestamp;temperature;humidity
67942;SHT31;54731;42.600;23.476;2022-09-13T00:01:28;13.55;73.49
67942;SHT31;54731;42.600;23.476;2022-09-13T00:03:54;13.55;73.62
67942;SHT31;54731;42.600;23.476;2022-09-13T00:06:20;13.53;73.65
67942;SHT31;54731;42.600;23.476;2022-09-13T00:08:46;13.46;73.90
67942;SHT31;54731;42.600;23.476;2022-09-13T00:11:17;13.49;73.93
67942;SHT31;54731;42.600;23.476;2022-09-13T00:13:43;13.48;74.17
67942;SHT31;54731;42.600;23.476;2022-09-13T00:16:14;13.45;74.24
67942;SHT31;54731;42.600;23.476;2022-09-13T00:18:40;13.43;74.26
67942;SHT31;54731;42.600;23.476;2022-09-13T00:21:08;13.46;74.17
67942;SHT31;54731;42.600;23.476;2022-09-13T00:23:35;13.45;74.45
67942;SHT31;54731;42.600;23.476;2022-09-13T00:26:10;13.45;74.49
67942;SHT31;54731;42.600;23.476;2022-09-13T00:28:36;13.43;74.60
67942;SHT31;54731;42.600;23.476;2022-09-13T00:31:03;13.45;74.78
67942;SHT31;54731;42.600;23.476;2022-09-13T00:33:29;13.46;74.71
67942;SHT31;54731;42.600;23.476;2022-09-13T00:35:55;13.43;74.85
67942;SHT31;54731;42.600;23.476;2022-09-13T00:38:21;13.46;74.94
67942;SHT31;54731;42.600;23.476;2022-09-13T00:40:46;13.48;74.92
67942;SHT31;54731;42.600;23.476;2022-09-13T00:43:17;13.43;75.06
67942;SHT31;54731;42.600;23.476;2022-09-13T00:45:44;13.46;75.04
67942;SHT31;54731;42.600;23.476;2022-09-13T00:48:17;13.49;74.98
67942;SHT31;54731;42.600;23.476;2022-09-13T00:50:52;13.48;75.01
67942;SHT31;54731;42.600;23.476;2022-09-13T00:53:23;13.50;75.00
67942;SHT31;54731;42.600;23.476;2022-09-13T00:58:30;13.53;74.93
67942;SHT31;54731;42.600;23.476;2022-09-13T01:00:57;13.59;74.80
67942;SHT31;54731;42.600;23.476;2022-09-13T01:03:25;13.56;75.03
67942;SHT31;54731;42.600;23.476;2022-09-13T01:05:57;13.50;75.33
67942;SHT31;54731;42.600;23.476;2022-09-13T01:08:25;13.53;75.48
67942;SHT31;54731;42.600;23.476;2022-09-13T01:10:51;13.52;75.34
67942;SHT31;54731;42.600;23.476;2022-09-13T01:13:23;13.52;75.28
67942;SHT31;54731;42.600;23.476;2022-09-13T01:15:50;13.56;75.57
67942;SHT31;54731;42.600;23.476;2022-09-13T01:18:16;13.49;75.69
67942;SHT31;54731;42.600;23.476;2022-09-13T01:34:46;13.53;75.78
67942;SHT31;54731;42.600;23.476;2022-09-13T01:37:35;13.53;75.59
67942;SHT31;54731;42.600;23.476;2022-09-13T01:40:04;13.53;75.78
67942;SHT31;54731;42.600;23.476;2022-09-13T01:45:09;13.52;75.75
67942;SHT31;54731;42.600;23.476;2022-09-13T01:47:49;13.50;75.57
67942;SHT31;54731;42.600;23.476;2022-09-13T01:53:31;13.52;75.74
67942;SHT31;54731;42.600;23.476;2022-09-13T01:58:47;13.53;75.36
67942;SHT31;54731;42.600;23.476;2022-09-13T02:01:19;13.50;75.63
67942;SHT31;54731;42.600;23.476;2022-09-13T02:04:01;13.52;75.83
67942;SHT31;54731;42.600;23.476;2022-09-13T02:06:34;13.52;75.40
67942;SHT31;54731;42.600;23.476;2022-09-13T02:09:03;13.59;75.50
67942;SHT31;54731;42.600;23.476;2022-09-13T02:11:32;13.55;75.58
67942;SHT31;54731;42.600;23.476;2022-09-13T02:14:08;13.56;76.03
67942;SHT31;54731;42.600;23.476;2022-09-13T02:16:44;13.59;75.92
67942;SHT31;54731;42.600;23.476;2022-09-13T02:19:52;13.55;75.65
67942;SHT31;54731;42.600;23.476;2022-09-13T02:22:24;13.50;76.01
67942;SHT31;54731;42.600;23.476;2022-09-13T02:24:54;13.55;75.78
67942;SHT31;54731;42.600;23.476;2022-09-13T02:27:24;13.53;75.56
67942;SHT31;54731;42.600;23.476;2022-09-13T02:29:55;13.49;75.84
67942;SHT31;54731;42.600;23.476;2022-09-13T02:32:30;13.52;75.67
67942;SHT31;54731;42.600;23.476;2022-09-13T02:35:02;13.55;75.78
67942;SHT31;54731;42.600;23.476;2022-09-13T02:37:31;13.53;75.82
67942;SHT31;54731;42.600;23.476;2022-09-13T02:40:03;13.50;75.85
67942;SHT31;54731;42.600;23.476;2022-09-13T02:42:33;13.45;76.02
67942;SHT31;54731;42.600;23.476;2022-09-13T02:44:59;13.45;75.99
67942;SHT31;54731;42.600;23.476;2022-09-13T02:56:19;13.28;76.23
67942;SHT31;54731;42.600;23.476;2022-09-13T02:58:55;13.25;76.35
67942;SHT31;54731;42.600;23.476;2022-09-13T03:01:22;13.22;76.38
67942;SHT31;54731;42.600;23.476;2022-09-13T03:03:48;13.22;76.35
67942;SHT31;54731;42.600;23.476;2022-09-13T03:06:23;13.18;76.62
67942;SHT31;54731;42.600;23.476;2022-09-13T03:08:48;13.20;76.46
67942;SHT31;54731;42.600;23.476;2022-09-13T03:28:02;13.02;76.64
67942;SHT31;54731;42.600;23.476;2022-09-13T03:30:34;13.01;76.97
67942;SHT31;54731;42.600;23.476;2022-09-13T03:35:51;12.99;76.61
67942;SHT31;54731;42.600;23.476;2022-09-13T03:38:38;12.96;76.79
67942;SHT31;54731;42.600;23.476;2022-09-13T03:41:11;12.94;76.74
67942;SHT31;54731;42.600;23.476;2022-09-13T03:48:44;12.84;76.96
67942;SHT31;54731;42.600;23.476;2022-09-13T03:51:10;12.88;76.72
67942;SHT31;54731;42.600;23.476;2022-09-13T03:53:39;12.91;76.53
67942;SHT31;54731;42.600;23.476;2022-09-13T03:56:17;12.84;76.61
67942;SHT31;54731;42.600;23.476;2022-09-13T03:58:43;12.84;76.69
67942;SHT31;54731;42.600;23.476;2022-09-13T04:01:08;12.80;76.77
67942;SHT31;54731;42.600;23.476;2022-09-13T04:03:34;12.77;76.67
67942;SHT31;54731;42.600;23.476;2022-09-13T04:06:00;12.74;76.89
67942;SHT31;54731;42.600;23.476;2022-09-13T04:08:25;12.69;76.89
67942;SHT31;54731;42.600;23.476;2022-09-13T04:10:50;12.71;76.68
67942;SHT31;54731;42.600;23.476;2022-09-13T04:13:16;12.69;76.69
67942;SHT31;54731;42.600;23.476;2022-09-13T04:15:41;12.68;77.03
67942;SHT31;54731;42.600;23.476;2022-09-13T04:18:06;12.71;76.82
67942;SHT31;54731;42.600;23.476;2022-09-13T04:20:32;12.73;76.40
67942;SHT31;54731;42.600;23.476;2022-09-13T04:22:57;12.68;76.38
67942;SHT31;54731;42.600;23.476;2022-09-13T04:25:23;12.68;76.45
67942;SHT31;54731;42.600;23.476;2022-09-13T04:27:53;12.71;76.40
67942;SHT31;54731;42.600;23.476;2022-09-13T04:30:19;12.67;76.39
67942;SHT31;54731;42.600;23.476;2022-09-13T04:32:44;12.63;76.58
67942;SHT31;54731;42.600;23.476;2022-09-13T04:35:10;12.65;76.48
67942;SHT31;54731;42.600;23.476;2022-09-13T04:37:36;12.61;76.25
67942;SHT31;54731;42.600;23.476;2022-09-13T04:40:02;12.67;76.19
67942;SHT31;54731;42.600;23.476;2022-09-13T04:42:27;12.73;76.01
67942;SHT31;54731;42.600;23.476;2022-09-13T04:44:53;12.69;76.00
67942;SHT31;54731;42.600;23.476;2022-09-13T04:47:18;12.74;75.70
67942;SHT31;54731;42.600;23.476;2022-09-13T04:49:43;12.75;75.97
67942;SHT31;54731;42.600;23.476;2022-09-13T04:52:09;12.83;75.35
67942;SHT31;54731;42.600;23.476;2022-09-13T04:54:34;12.85;76.06
67942;SHT31;54731;42.600;23.476;2022-09-13T04:56:59;12.89;75.63
67942;SHT31;54731;42.600;23.476;2022-09-13T04:59:24;12.95;75.58
67942;SHT31;54731;42.600;23.476;2022-09-13T05:01:50;12.96;75.80
67942;SHT31;54731;42.600;23.476;2022-09-13T05:04:15;12.96;75.69
67942;SHT31;54731;42.600;23.476;2022-09-13T05:06:41;12.98;75.81
67942;SHT31;54731;42.600;23.476;2022-09-13T05:09:06;13.04;75.95
67942;SHT31;54731;42.600;23.476;2022-09-13T05:11:32;13.06;75.42
67942;SHT31;54731;42.600;23.476;2022-09-13T05:13:58;13.08;75.82
67942;SHT31;54731;42.600;23.476;2022-09-13T05:16:30;13.12;75.68
67942;SHT31;54731;42.600;23.476;2022-09-13T05:18:56;13.15;75.49
67942;SHT31;54731;42.600;23.476;2022-09-13T05:21:22;13.15;75.62
67942;SHT31;54731;42.600;23.476;2022-09-13T05:23:48;13.19;75.37
67942;SHT31;54731;42.600;23.476;2022-09-13T05:26:13;13.23;75.50
67942;SHT31;54731;42.600;23.476;2022-09-13T05:28:39;13.30;75.27
67942;SHT31;54731;42.600;23.476;2022-09-13T05:31:36;13.29;75.06
67942;SHT31;54731;42.600;23.476;2022-09-13T05:34:05;13.35;75.03
67942;SHT31;54731;42.600;23.476;2022-09-13T05:36:31;13.42;74.49
67942;SHT31;54731;42.600;23.476;2022-09-13T05:38:56;13.48;74.46
67942;SHT31;54731;42.600;23.476;2022-09-13T05:41:22;13.53;73.69
67942;SHT31;54731;42.600;23.476;2022-09-13T05:43:48;13.56;74.21
67942;SHT31;54731;42.600;23.476;2022-09-13T05:46:18;13.58;73.75
67942;SHT31;54731;42.600;23.476;2022-09-13T05:48:44;13.62;73.59
67942;SHT31;54731;42.600;23.476;2022-09-13T05:51:12;13.62;73.51
67942;SHT31;54731;42.600;23.476;2022-09-13T05:53:40;13.66;73.42
67942;SHT31;54731;42.600;23.476;2022-09-13T05:56:10;13.67;73.98
67942;SHT31;54731;42.600;23.476;2022-09-13T05:58:42;13.63;72.81
67942;SHT31;54731;42.600;23.476;2022-09-13T06:01:09;13.67;73.07
67942;SHT31;54731;42.600;23.476;2022-09-13T06:03:35;13.73;73.08
67942;SHT31;54731;42.600;23.476;2022-09-13T06:06:00;13.73;73.08
67942;SHT31;54731;42.600;23.476;2022-09-13T06:08:28;13.83;73.08
67942;SHT31;54731;42.600;23.476;2022-09-13T06:11:01;13.73;72.82
67942;SHT31;54731;42.600;23.476;2022-09-13T06:13:28;13.71;73.04
67942;SHT31;54731;42.600;23.476;2022-09-13T06:15:54;13.70;73.41
67942;SHT31;54731;42.600;23.476;2022-09-13T06:18:20;13.71;73.78
67942;SHT31;54731;42.600;23.476;2022-09-13T06:20:46;13.76;74.23
67942;SHT31;54731;42.600;23.476;2022-09-13T06:23:12;13.76;74.38
67942;SHT31;54731;42.600;23.476;2022-09-13T06:25:38;13.71;74.74
67942;SHT31;54731;42.600;23.476;2022-09-13T06:28:04;13.73;74.67
67942;SHT31;54731;42.600;23.476;2022-09-13T06:30:29;13.70;74.14
67942;SHT31;54731;42.600;23.476;2022-09-13T06:32:55;13.74;75.19
67942;SHT31;54731;42.600;23.476;2022-09-13T06:35:20;13.79;74.77
67942;SHT31;54731;42.600;23.476;2022-09-13T06:37:46;13.86;74.98
67942;SHT31;54731;42.600;23.476;2022-09-13T06:40:11;13.84;74.96
67942;SHT31;54731;42.600;23.476;2022-09-13T06:42:36;13.90;75.05
67942;SHT31;54731;42.600;23.476;2022-09-13T06:45:02;13.99;74.79
67942;SHT31;54731;42.600;23.476;2022-09-13T06:47:27;14.10;73.00
67942;SHT31;54731;42.600;23.476;2022-09-13T06:49:53;14.17;73.13
67942;SHT31;54731;42.600;23.476;2022-09-13T06:52:18;14.20;72.55
67942;SHT31;54731;42.600;23.476;2022-09-13T06:54:43;14.28;71.84
67942;SHT31;54731;42.600;23.476;2022-09-13T06:57:09;14.34;70.19
67942;SHT31;54731;42.600;23.476;2022-09-13T06:59:34;14.44;70.21
67942;SHT31;54731;42.600;23.476;2022-09-13T07:02:00;14.51;69.49
67942;SHT31;54731;42.600;23.476;2022-09-13T07:04:25;14.57;69.02
67942;SHT31;54731;42.600;23.476;2022-09-13T07:06:50;14.62;68.42
67942;SHT31;54731;42.600;23.476;2022-09-13T07:09:20;14.64;69.07
67942;SHT31;54731;42.600;23.476;2022-09-13T07:11:47;14.65;68.67
67942;SHT31;54731;42.600;23.476;2022-09-13T07:14:15;14.69;68.51
67942;SHT31;54731;42.600;23.476;2022-09-13T07:16:41;14.76;68.94
67942;SHT31;54731;42.600;23.476;2022-09-13T07:19:12;14.85;67.59
67942;SHT31;54731;42.600;23.476;2022-09-13T07:21:37;14.92;66.83
67942;SHT31;54731;42.600;23.476;2022-09-13T07:24:03;14.84;66.38
67942;SHT31;54731;42.600;23.476;2022-09-13T07:26:29;14.92;66.33
67942;SHT31;54731;42.600;23.476;2022-09-13T07:28:56;14.92;65.81
67942;SHT31;54731;42.600;23.476;2022-09-13T07:31:30;14.98;67.39
67942;SHT31;54731;42.600;23.476;2022-09-13T07:34:07;14.99;66.09
67942;SHT31;54731;42.600;23.476;2022-09-13T07:36:35;15.09;66.09
67942;SHT31;54731;42.600;23.476;2022-09-13T07:39:01;15.13;65.31
67942;SHT31;54731;42.600;23.476;2022-09-13T07:41:27;15.09;64.94
67942;SHT31;54731;42.600;23.476;2022-09-13T07:43:54;15.20;65.05
67942;SHT31;54731;42.600;23.476;2022-09-13T07:46:24;15.22;64.28
67942;SHT31;54731;42.600;23.476;2022-09-13T07:48:52;15.25;65.87
67942;SHT31;54731;42.600;23.476;2022-09-13T07:51:22;15.35;64.20
67942;SHT31;54731;42.600;23.476;2022-09-13T07:53:50;15.39;63.20
67942;SHT31;54731;42.600;23.476;2022-09-13T07:56:20;15.39;63.56
67942;SHT31;54731;42.600;23.476;2022-09-13T07:58:48;15.46;62.71
67942;SHT31;54731;42.600;23.476;2022-09-13T08:03:40;15.63;61.32
67942;SHT31;54731;42.600;23.476;2022-09-13T08:06:07;15.66;61.53
67942;SHT31;54731;42.600;23.476;2022-09-13T08:08:34;15.74;61.48
67942;SHT31;54731;42.600;23.476;2022-09-13T08:11:01;15.74;59.23
67942;SHT31;54731;42.600;23.476;2022-09-13T08:13:27;15.73;59.82
67942;SHT31;54731;42.600;23.476;2022-09-13T08:15:53;15.64;59.91
67942;SHT31;54731;42.600;23.476;2022-09-13T08:18:19;15.71;61.21
67942;SHT31;54731;42.600;23.476;2022-09-13T08:20:44;15.91;59.19
67942;SHT31;54731;42.600;23.476;2022-09-13T08:23:10;16.05;59.26
67942;SHT31;54731;42.600;23.476;2022-09-13T08:25:36;16.17;58.93
67942;SHT31;54731;42.600;23.476;2022-09-13T08:28:06;16.18;58.59
67942;SHT31;54731;42.600;23.476;2022-09-13T08:30:35;16.15;58.52
67942;SHT31;54731;42.600;23.476;2022-09-13T08:33:05;16.12;59.10
67942;SHT31;54731;42.600;23.476;2022-09-13T08:35:31;16.17;59.06
67942;SHT31;54731;42.600;23.476;2022-09-13T08:37:57;16.22;58.07
67942;SHT31;54731;42.600;23.476;2022-09-13T08:40:27;16.34;58.11
67942;SHT31;54731;42.600;23.476;2022-09-13T08:43:11;16.52;57.62
67942;SHT31;54731;42.600;23.476;2022-09-13T08:45:38;16.63;55.53
67942;SHT31;54731;42.600;23.476;2022-09-13T08:48:12;16.77;53.17
67942;SHT31;54731;42.600;23.476;2022-09-13T08:50:39;16.72;53.83
67942;SHT31;54731;42.600;23.476;2022-09-13T08:56:13;16.82;54.88
67942;SHT31;54731;42.600;23.476;2022-09-13T09:04:45;17.03;54.98
67942;SHT31;54731;42.600;23.476;2022-09-13T09:09:49;17.24;53.09
67942;SHT31;54731;42.600;23.476;2022-09-13T09:12:38;17.34;51.75
67942;SHT31;54731;42.600;23.476;2022-09-13T09:20:20;17.66;50.42
67942;SHT31;54731;42.600;23.476;2022-09-13T09:22:47;17.75;52.03
67942;SHT31;54731;42.600;23.476;2022-09-13T09:25:14;17.80;50.33
67942;SHT31;54731;42.600;23.476;2022-09-13T09:27:39;17.90;50.91
67942;SHT31;54731;42.600;23.476;2022-09-13T09:30:05;18.00;49.77
67942;SHT31;54731;42.600;23.476;2022-09-13T09:38:41;18.15;48.45
67942;SHT31;54731;42.600;23.476;2022-09-13T09:41:19;18.18;48.36
67942;SHT31;54731;42.600;23.476;2022-09-13T09:44:12;18.16;48.93
67942;SHT31;54731;42.600;23.476;2022-09-13T09:46:40;18.16;49.11
67942;SHT31;54731;42.600;23.476;2022-09-13T09:49:14;18.11;48.15
67942;SHT31;54731;42.600;23.476;2022-09-13T09:51:40;18.00;47.88
67942;SHT31;54731;42.600;23.476;2022-09-13T09:54:06;18.01;47.90
67942;SHT31;54731;42.600;23.476;2022-09-13T09:56:32;18.04;49.24
67942;SHT31;54731;42.600;23.476;2022-09-13T09:58:58;18.09;49.28
67942;SHT31;54731;42.600;23.476;2022-09-13T10:01:43;18.09;49.16
67942;SHT31;54731;42.600;23.476;2022-09-13T10:06:38;18.16;49.46
67942;SHT31;54731;42.600;23.476;2022-09-13T10:09:29;18.15;49.18
67942;SHT31;54731;42.600;23.476;2022-09-13T10:11:57;18.24;49.56
67942;SHT31;54731;42.600;23.476;2022-09-13T10:14:33;18.42;49.79
67942;SHT31;54731;42.600;23.476;2022-09-13T10:19:31;18.76;47.98
67942;SHT31;54731;42.600;23.476;2022-09-13T10:21:59;18.97;46.25
67942;SHT31;54731;42.600;23.476;2022-09-13T10:24:26;19.08;45.33
67942;SHT31;54731;42.600;23.476;2022-09-13T10:26:52;19.23;45.66
67942;SHT31;54731;42.600;23.476;2022-09-13T10:29:17;19.37;45.37
67942;SHT31;54731;42.600;23.476;2022-09-13T10:31:45;19.44;44.50
67942;SHT31;54731;42.600;23.476;2022-09-13T10:36:37;19.65;46.12
67942;SHT31;54731;42.600;23.476;2022-09-13T10:39:18;19.61;44.62
67942;SHT31;54731;42.600;23.476;2022-09-13T10:41:50;19.41;43.45
67942;SHT31;54731;42.600;23.476;2022-09-13T10:46:54;19.16;44.61
67942;SHT31;54731;42.600;23.476;2022-09-13T10:49:41;19.38;45.81
67942;SHT31;54731;42.600;23.476;2022-09-13T10:57:43;20.02;43.44
67942;SHT31;54731;42.600;23.476;2022-09-13T11:00:14;19.99;43.80
67942;SHT31;54731;42.600;23.476;2022-09-13T11:13:57;20.39;41.03
67942;SHT31;54731;42.600;23.476;2022-09-13T11:16:40;20.64;41.71
67942;SHT31;54731;42.600;23.476;2022-09-13T11:19:53;20.84;38.46
67942;SHT31;54731;42.600;23.476;2022-09-13T11:22:39;20.97;39.41
67942;SHT31;54731;42.600;23.476;2022-09-13T11:25:07;21.18;39.01
67942;SHT31;54731;42.600;23.476;2022-09-13T11:30:21;21.51;40.31
67942;SHT31;54731;42.600;23.476;2022-09-13T11:38:34;22.19;39.10
67942;SHT31;54731;42.600;23.476;2022-09-13T11:41:22;22.36;37.51
67942;SHT31;54731;42.600;23.476;2022-09-13T11:58:03;23.86;34.37
67942;SHT31;54731;42.600;23.476;2022-09-13T12:00:33;23.86;34.62
67942;SHT31;54731;42.600;23.476;2022-09-13T12:05:43;23.85;36.07
67942;SHT31;54731;42.600;23.476;2022-09-13T12:08:19;24.14;34.46
67942;SHT31;54731;42.600;23.476;2022-09-13T12:10:52;23.85;34.37
67942;SHT31;54731;42.600;23.476;2022-09-13T12:13:22;24.20;32.94
67942;SHT31;54731;42.600;23.476;2022-09-13T12:15:52;24.50;33.91
67942;SHT31;54731;42.600;23.476;2022-09-13T12:18:23;24.81;33.04
67942;SHT31;54731;42.600;23.476;2022-09-13T12:21:05;25.08;33.68
67942;SHT31;54731;42.600;23.476;2022-09-13T12:23:36;25.41;32.88
67942;SHT31;54731;42.600;23.476;2022-09-13T12:28:40;25.45;31.18
67942;SHT31;54731;42.600;23.476;2022-09-13T12:31:17;25.41;31.25
67942;SHT31;54731;42.600;23.476;2022-09-13T12:33:45;25.52;31.80
67942;SHT31;54731;42.600;23.476;2022-09-13T12:39:39;25.65;32.12
67942;SHT31;54731;42.600;23.476;2022-09-13T12:45:11;25.66;31.72
67942;SHT31;54731;42.600;23.476;2022-09-13T12:50:34;25.31;31.17
67942;SHT31;54731;42.600;23.476;2022-09-13T12:55:50;25.41;30.85
67942;SHT31;54731;42.600;23.476;2022-09-13T13:01:19;25.47;30.75
67942;SHT31;54731;42.600;23.476;2022-09-13T13:04:07;25.53;30.84
67942;SHT31;54731;42.600;23.476;2022-09-13T13:09:41;25.52;31.26
67942;SHT31;54731;42.600;23.476;2022-09-13T13:12:24;25.39;31.29
67942;SHT31;54731;42.600;23.476;2022-09-13T13:14:51;24.96;31.57
67942;SHT31;54731;42.600;23.476;2022-09-13T13:23:29;25.29;31.36
67942;SHT31;54731;42.600;23.476;2022-09-13T13:29:20;25.12;32.29
67942;SHT31;54731;42.600;23.476;2022-09-13T13:34:25;25.21;31.82
67942;SHT31;54731;42.600;23.476;2022-09-13T13:37:03;25.19;31.29
67942;SHT31;54731;42.600;23.476;2022-09-13T13:41:56;25.21;32.46
67942;SHT31;54731;42.600;23.476;2022-09-13T13:54:57;24.78;33.51
67942;SHT31;54731;42.600;23.476;2022-09-13T14:00:27;24.80;32.80
67942;SHT31;54731;42.600;23.476;2022-09-13T14:03:08;24.74;34.13
67942;SHT31;54731;42.600;23.476;2022-09-13T14:05:43;24.46;35.11
67942;SHT31;54731;42.600;23.476;2022-09-13T14:13:43;23.87;34.43
67942;SHT31;54731;42.600;23.476;2022-09-13T14:21:39;24.00;34.52
67942;SHT31;54731;42.600;23.476;2022-09-13T14:24:18;24.17;34.32
67942;SHT31;54731;42.600;23.476;2022-09-13T14:26:47;24.12;33.73
67942;SHT31;54731;42.600;23.476;2022-09-13T14:29:19;24.03;33.37
67942;SHT31;54731;42.600;23.476;2022-09-13T14:31:49;24.12;33.27
67942;SHT31;54731;42.600;23.476;2022-09-13T14:34:29;24.07;34.29
67942;SHT31;54731;42.600;23.476;2022-09-13T14:36:57;23.82;33.27
67942;SHT31;54731;42.600;23.476;2022-09-13T14:39:24;23.90;33.44
67942;SHT31;54731;42.600;23.476;2022-09-13T14:42:01;23.95;32.79
67942;SHT31;54731;42.600;23.476;2022-09-13T14:44:27;23.86;33.55
67942;SHT31;54731;42.600;23.476;2022-09-13T14:47:07;23.76;34.29
67942;SHT31;54731;42.600;23.476;2022-09-13T14:49:40;23.61;34.32
67942;SHT31;54731;42.600;23.476;2022-09-13T14:52:27;23.49;34.80
67942;SHT31;54731;42.600;23.476;2022-09-13T14:54:56;23.54;34.56
67942;SHT31;54731;42.600;23.476;2022-09-13T14:57:28;23.21;34.05
67942;SHT31;54731;42.600;23.476;2022-09-13T15:00:20;23.19;33.84
67942;SHT31;54731;42.600;23.476;2022-09-13T15:02:50;23.16;35.55
67942;SHT31;54731;42.600;23.476;2022-09-13T15:05:18;22.97;35.87
67942;SHT31;54731;42.600;23.476;2022-09-13T15:07:44;22.88;36.31
67942;SHT31;54731;42.600;23.476;2022-09-13T15:13:01;22.80;35.67
67942;SHT31;54731;42.600;23.476;2022-09-13T15:15:40;22.74;36.05
67942;SHT31;54731;42.600;23.476;2022-09-13T15:18:23;22.75;36.06
67942;SHT31;54731;42.600;23.476;2022-09-13T15:23:51;22.75;35.41
67942;SHT31;54731;42.600;23.476;2022-09-13T15:26:21;22.61;35.29
67942;SHT31;54731;42.600;23.476;2022-09-13T15:28:50;22.61;36.33
67942;SHT31;54731;42.600;23.476;2022-09-13T15:31:20;22.50;36.10
67942;SHT31;54731;42.600;23.476;2022-09-13T15:33:46;22.47;36.00
67942;SHT31;54731;42.600;23.476;2022-09-13T15:36:32;22.46;35.88
67942;SHT31;54731;42.600;23.476;2022-09-13T15:39:09;22.30;36.39
67942;SHT31;54731;42.600;23.476;2022-09-13T15:41:42;22.03;36.58
67942;SHT31;54731;42.600;23.476;2022-09-13T15:44:14;21.88;37.50
67942;SHT31;54731;42.600;23.476;2022-09-13T15:46:46;21.79;37.78
67942;SHT31;54731;42.600;23.476;2022-09-13T15:49:16;21.58;38.19
67942;SHT31;54731;42.600;23.476;2022-09-13T16:00:50;21.07;39.56
67942;SHT31;54731;42.600;23.476;2022-09-13T16:03:15;20.97;40.11
67942;SHT31;54731;42.600;23.476;2022-09-13T16:05:41;20.83;39.73
67942;SHT31;54731;42.600;23.476;2022-09-13T16:08:09;20.63;39.98
67942;SHT31;54731;42.600;23.476;2022-09-13T16:10:35;20.53;40.32
67942;SHT31;54731;42.600;23.476;2022-09-13T16:13:00;20.28;40.68
67942;SHT31;54731;42.600;23.476;2022-09-13T16:15:26;20.20;42.14
67942;SHT31;54731;42.600;23.476;2022-09-13T16:17:51;20.04;41.00
67942;SHT31;54731;42.600;23.476;2022-09-13T16:20:16;20.02;41.35
67942;SHT31;54731;42.600;23.476;2022-09-13T16:22:42;19.82;41.33
67942;SHT31;54731;42.600;23.476;2022-09-13T16:25:09;19.74;41.17
67942;SHT31;54731;42.600;23.476;2022-09-13T16:27:36;19.58;42.39
67942;SHT31;54731;42.600;23.476;2022-09-13T16:30:02;19.50;42.10
67942;SHT31;54731;42.600;23.476;2022-09-13T16:32:27;19.38;42.03
67942;SHT31;54731;42.600;23.476;2022-09-13T16:34:53;19.30;43.74
67942;SHT31;54731;42.600;23.476;2022-09-13T16:37:18;19.16;42.79
67942;SHT31;54731;42.600;23.476;2022-09-13T16:39:44;19.08;42.72
67942;SHT31;54731;42.600;23.476;2022-09-13T16:42:10;19.00;42.89
67942;SHT31;54731;42.600;23.476;2022-09-13T16:44:35;18.90;43.25
67942;SHT31;54731;42.600;23.476;2022-09-13T16:47:00;18.72;43.77
67942;SHT31;54731;42.600;23.476;2022-09-13T16:49:26;18.66;44.05
67942;SHT31;54731;42.600;23.476;2022-09-13T16:51:51;18.64;43.98
67942;SHT31;54731;42.600;23.476;2022-09-13T16:54:17;18.53;44.07
67942;SHT31;54731;42.600;23.476;2022-09-13T16:56:42;18.42;44.15
67942;SHT31;54731;42.600;23.476;2022-09-13T16:59:07;18.38;44.04
67942;SHT31;54731;42.600;23.476;2022-09-13T17:01:34;18.33;44.58
67942;SHT31;54731;42.600;23.476;2022-09-13T17:03:59;18.21;44.96
67942;SHT31;54731;42.600;23.476;2022-09-13T17:06:25;18.13;44.61
67942;SHT31;54731;42.600;23.476;2022-09-13T17:08:54;18.05;45.02
67942;SHT31;54731;42.600;23.476;2022-09-13T17:11:21;18.01;44.89
67942;SHT31;54731;42.600;23.476;2022-09-13T17:13:47;17.92;45.25
67942;SHT31;54731;42.600;23.476;2022-09-13T17:16:21;17.88;45.05
67942;SHT31;54731;42.600;23.476;2022-09-13T17:18:47;17.77;45.69
67942;SHT31;54731;42.600;23.476;2022-09-13T17:21:12;17.71;45.92
67942;SHT31;54731;42.600;23.476;2022-09-13T17:23:37;17.66;46.29
67942;SHT31;54731;42.600;23.476;2022-09-13T17:26:03;17.64;46.49
67942;SHT31;54731;42.600;23.476;2022-09-13T17:28:28;17.55;46.92
67942;SHT31;54731;42.600;23.476;2022-09-13T17:30:53;17.54;47.00
67942;SHT31;54731;42.600;23.476;2022-09-13T17:33:18;17.44;47.80
67942;SHT31;54731;42.600;23.476;2022-09-13T17:35:44;17.41;47.87
67942;SHT31;54731;42.600;23.476;2022-09-13T17:38:09;17.41;47.91
67942;SHT31;54731;42.600;23.476;2022-09-13T17:40:35;17.36;48.21
67942;SHT31;54731;42.600;23.476;2022-09-13T17:43:00;17.31;49.24
67942;SHT31;54731;42.600;23.476;2022-09-13T17:45:25;17.34;49.15
67942;SHT31;54731;42.600;23.476;2022-09-13T17:47:52;17.31;50.04
67942;SHT31;54731;42.600;23.476;2022-09-13T17:50:17;17.33;49.31
67942;SHT31;54731;42.600;23.476;2022-09-13T17:52:43;17.31;49.29
67942;SHT31;54731;42.600;23.476;2022-09-13T17:55:08;17.28;49.39
67942;SHT31;54731;42.600;23.476;2022-09-13T17:57:33;17.20;49.45
67942;SHT31;54731;42.600;23.476;2022-09-13T17:59:59;17.24;50.10
67942;SHT31;54731;42.600;23.476;2022-09-13T18:02:24;17.23;49.62
67942;SHT31;54731;42.600;23.476;2022-09-13T18:04:50;17.24;49.55
67942;SHT31;54731;42.600;23.476;2022-09-13T18:07:16;17.16;49.79
67942;SHT31;54731;42.600;23.476;2022-09-13T18:09:41;17.16;50.03
67942;SHT31;54731;42.600;23.476;2022-09-13T18:12:06;17.16;50.00
67942;SHT31;54731;42.600;23.476;2022-09-13T18:14:32;17.10;49.98
67942;SHT31;54731;42.600;23.476;2022-09-13T18:16:57;17.07;49.90
67942;SHT31;54731;42.600;23.476;2022-09-13T18:19:23;17.06;50.50
67942;SHT31;54731;42.600;23.476;2022-09-13T18:21:48;16.97;50.70
67942;SHT31;54731;42.600;23.476;2022-09-13T18:24:14;16.96;50.39
67942;SHT31;54731;42.600;23.476;2022-09-13T18:29:14;16.96;50.44
67942;SHT31;54731;42.600;23.476;2022-09-13T18:31:40;16.93;50.68
67942;SHT31;54731;42.600;23.476;2022-09-13T18:34:09;16.92;50.72
67942;SHT31;54731;42.600;23.476;2022-09-13T18:36:35;16.86;51.16
67942;SHT31;54731;42.600;23.476;2022-09-13T18:39:01;16.89;51.01
67942;SHT31;54731;42.600;23.476;2022-09-13T18:41:31;16.86;51.22
67942;SHT31;54731;42.600;23.476;2022-09-13T18:43:56;16.86;50.92
67942;SHT31;54731;42.600;23.476;2022-09-13T18:46:26;16.85;51.36
67942;SHT31;54731;42.600;23.476;2022-09-13T18:48:53;16.79;51.57
67942;SHT31;54731;42.600;23.476;2022-09-13T18:51:22;16.75;51.59
67942;SHT31;54731;42.600;23.476;2022-09-13T18:53:49;16.73;51.64
67942;SHT31;54731;42.600;23.476;2022-09-13T18:56:16;16.76;51.63
67942;SHT31;54731;42.600;23.476;2022-09-13T18:58:42;16.75;51.35
67942;SHT31;54731;42.600;23.476;2022-09-13T19:01:19;16.77;52.02